createdAt,value
2018-08-17T00:00:10.264Z,46.00
2018-08-17T00:02:39.431Z,46.20
2018-08-17T00:05:08.755Z,46.30
2018-08-17T00:07:37.955Z,46.00
2018-08-17T00:10:07.184Z,45.70
2018-08-17T00:12:36.416Z,45.50
2018-08-17T00:15:06.219Z,45.30
2018-08-17T00:17:35.428Z,46.10
2018-08-17T00:20:04.736Z,46.40
2018-08-17T00:22:34.185Z,46.10
2018-08-17T00:25:03.423Z,45.80
2018-08-17T00:27:32.708Z,48.10
2018-08-17T00:30:01.924Z,47.80
2018-08-17T00:32:31.099Z,47.50
2018-08-17T00:35:00.326Z,47.40
2018-08-17T00:37:29.523Z,47.40
2018-08-17T00:39:58.715Z,48.10
2018-08-17T00:42:28.791Z,47.80
2018-08-17T00:44:58.135Z,47.10
2018-08-17T00:47:27.727Z,47.10
2018-08-17T00:49:56.912Z,47.30
2018-08-17T00:52:26.171Z,47.40
2018-08-17T00:54:55.347Z,48.30
2018-08-17T00:57:24.556Z,47.90
2018-08-17T00:59:53.943Z,47.90
2018-08-17T01:02:23.119Z,48.20
2018-08-17T01:04:52.508Z,48.00
2018-08-17T01:07:22.063Z,47.90
2018-08-17T01:09:51.414Z,48.10
2018-08-17T01:12:20.788Z,47.80
2018-08-17T01:14:50.166Z,48.00
2018-08-17T01:17:19.347Z,48.60
2018-08-17T01:19:48.553Z,48.20
2018-08-17T01:22:17.951Z,48.10
2018-08-17T01:24:47.126Z,48.20
2018-08-17T01:27:16.519Z,47.90
2018-08-17T01:29:46.079Z,48.00
2018-08-17T01:32:15.279Z,47.80
2018-08-17T01:34:44.804Z,48.30
2018-08-17T01:37:13.995Z,48.00
2018-08-17T01:39:43.192Z,48.00
2018-08-17T01:42:12.364Z,47.80
2018-08-17T01:44:41.571Z,48.20
2018-08-17T01:47:10.755Z,48.20
2018-08-17T01:49:40.047Z,48.10
2018-08-17T01:52:09.783Z,48.20
2018-08-17T01:54:39.411Z,48.20
2018-08-17T01:57:08.876Z,48.20
2018-08-17T01:59:38.091Z,48.30
2018-08-17T02:02:08.014Z,48.40
2018-08-17T02:04:37.191Z,48.60
2018-08-17T02:07:06.443Z,49.00
2018-08-17T02:09:35.637Z,48.60
2018-08-17T02:12:04.832Z,49.90
2018-08-17T02:14:34.475Z,49.80
2018-08-17T02:17:03.615Z,49.60
2018-08-17T02:19:32.811Z,49.10
2018-08-17T02:22:02.006Z,49.80
2018-08-17T02:24:31.223Z,49.20
2018-08-17T02:27:00.355Z,49.10
2018-08-17T02:29:29.562Z,49.60
2018-08-17T02:31:58.857Z,50.90
2018-08-17T02:34:28.051Z,52.60
2018-08-17T02:36:57.811Z,51.50
2018-08-17T02:39:27.021Z,51.50
2018-08-17T02:41:56.221Z,52.60
2018-08-17T02:44:25.477Z,50.90
2018-08-17T02:46:54.660Z,52.50
2018-08-17T02:49:24.183Z,51.50
2018-08-17T02:51:53.387Z,52.70
2018-08-17T02:54:22.571Z,51.30
2018-08-17T02:56:51.751Z,51.60
2018-08-17T02:59:21.337Z,51.30
2018-08-17T03:01:50.838Z,51.20
2018-08-17T03:04:20.395Z,51.60
2018-08-17T03:06:49.645Z,51.80
2018-08-17T03:09:18.826Z,51.90
2018-08-17T03:11:48.004Z,51.70
2018-08-17T03:14:17.204Z,52.00
2018-08-17T03:16:46.439Z,53.70
2018-08-17T03:19:15.628Z,55.10
2018-08-17T03:21:45.232Z,55.10
2018-08-17T03:24:14.416Z,55.30
2018-08-17T03:26:43.847Z,55.90
2018-08-17T03:29:13.079Z,53.70
2018-08-17T03:31:42.300Z,53.90
2018-08-17T03:34:12.222Z,53.20
2018-08-17T03:36:41.426Z,54.20
2018-08-17T03:39:11.119Z,55.60
2018-08-17T03:41:40.302Z,56.30
2018-08-17T03:44:09.705Z,55.80
2018-08-17T03:46:38.891Z,54.40
2018-08-17T03:49:08.179Z,56.30
2018-08-17T03:51:37.413Z,56.00
2018-08-17T03:54:07.267Z,57.00
2018-08-17T03:56:36.459Z,57.30
2018-08-17T03:59:06.047Z,57.00
2018-08-17T04:01:35.364Z,56.10
2018-08-17T04:04:04.588Z,55.70
2018-08-17T04:06:34.483Z,55.60
2018-08-17T04:09:05.204Z,56.70
2018-08-17T04:11:34.411Z,56.20
2018-08-17T04:14:04.929Z,55.90
2018-08-17T04:16:34.107Z,55.90
2018-08-17T04:19:03.535Z,57.70
2018-08-17T04:21:32.760Z,57.80
2018-08-17T04:24:02.108Z,57.60
2018-08-17T04:26:31.461Z,57.40
2018-08-17T04:29:00.956Z,56.50
2018-08-17T04:31:30.312Z,56.40
2018-08-17T04:33:59.519Z,56.60
2018-08-17T04:36:28.855Z,56.70
2018-08-17T04:38:58.063Z,57.30
2018-08-17T04:41:28.438Z,58.00
2018-08-17T04:43:57.663Z,57.20
2018-08-17T04:46:27.114Z,57.10
2018-08-17T04:48:56.319Z,57.90
2018-08-17T04:51:25.675Z,58.00
2018-08-17T04:53:54.879Z,58.30
2018-08-17T04:56:24.254Z,61.10
2018-08-17T04:58:53.571Z,61.40
2018-08-17T05:01:22.772Z,58.70
2018-08-17T05:03:52.080Z,59.80
2018-08-17T05:06:21.291Z,60.30
2018-08-17T05:08:51.064Z,60.40
2018-08-17T05:11:20.279Z,59.60
2018-08-17T05:13:49.707Z,58.50
2018-08-17T05:16:18.907Z,58.10
2018-08-17T05:18:48.076Z,58.50
2018-08-17T05:21:17.391Z,58.10
2018-08-17T05:23:46.558Z,58.80
2018-08-17T05:26:15.735Z,58.40
2018-08-17T05:28:45.163Z,58.40
2018-08-17T05:31:14.372Z,58.50
2018-08-17T05:33:43.594Z,59.00
2018-08-17T05:36:12.996Z,59.80
2018-08-17T05:38:42.195Z,59.40
2018-08-17T05:41:11.427Z,58.80
2018-08-17T05:43:40.684Z,58.80
2018-08-17T05:46:10.174Z,59.50
2018-08-17T05:48:39.366Z,59.90
2018-08-17T05:51:08.592Z,60.20
2018-08-17T05:53:37.824Z,59.60
2018-08-17T05:56:07.195Z,60.20
2018-08-17T05:58:36.711Z,60.40
2018-08-17T06:01:06.537Z,59.10
2018-08-17T06:03:35.736Z,60.80
2018-08-17T06:06:04.981Z,60.90
2018-08-17T06:08:34.537Z,59.50
2018-08-17T06:11:04.827Z,59.80
2018-08-17T06:13:34.147Z,59.50
2018-08-17T06:16:03.432Z,59.40
2018-08-17T06:18:32.639Z,61.20
2018-08-17T06:21:02.255Z,62.20
2018-08-17T06:23:31.447Z,60.90
2018-08-17T06:26:00.635Z,60.20
2018-08-17T06:28:29.857Z,60.30
2018-08-17T06:30:59.111Z,60.60
2018-08-17T06:33:28.299Z,60.00
2018-08-17T06:35:57.599Z,60.20
2018-08-17T06:38:26.792Z,59.60
2018-08-17T06:40:56.004Z,60.60
2018-08-17T06:43:25.659Z,60.00
2018-08-17T06:45:54.858Z,59.30
2018-08-17T06:48:24.040Z,59.70
2018-08-17T06:50:53.504Z,59.00
2018-08-17T06:53:22.543Z,58.70
2018-08-17T06:55:51.866Z,59.20
2018-08-17T06:58:21.255Z,59.10
2018-08-17T07:00:50.542Z,59.10
2018-08-17T07:03:19.737Z,58.90
2018-08-17T07:05:49.377Z,59.10
2018-08-17T07:08:18.611Z,58.70
2018-08-17T07:10:47.810Z,58.30
2018-08-17T07:13:17.660Z,58.40
2018-08-17T07:15:47.026Z,58.20
2018-08-17T07:18:16.215Z,58.10
2018-08-17T07:20:45.527Z,57.60
2018-08-17T07:23:14.743Z,57.20
2018-08-17T07:25:43.936Z,56.90
2018-08-17T07:28:13.432Z,56.90
2018-08-17T07:30:42.576Z,56.70
2018-08-17T07:33:11.803Z,56.60
2018-08-17T07:35:41.058Z,56.50
2018-08-17T07:38:10.395Z,56.30
2018-08-17T07:40:39.757Z,56.30
2018-08-17T07:43:08.967Z,56.50
2018-08-17T07:45:38.267Z,56.30
2018-08-17T07:48:07.559Z,56.30
2018-08-17T07:50:37.083Z,55.90
2018-08-17T07:53:06.296Z,55.60
2018-08-17T07:55:35.499Z,55.50
2018-08-17T07:58:04.737Z,55.30
2018-08-17T08:00:33.952Z,54.90
2018-08-17T08:03:05.771Z,54.80
2018-08-17T08:05:34.935Z,54.70
2018-08-17T08:08:04.427Z,54.60
2018-08-17T08:10:34.582Z,54.20
2018-08-17T08:13:03.997Z,54.20
2018-08-17T08:15:34.496Z,54.10
2018-08-17T08:18:03.797Z,54.30
2018-08-17T08:20:36.664Z,54.20
2018-08-17T08:23:16.943Z,53.90
2018-08-17T08:25:46.684Z,53.20
2018-08-17T08:28:16.084Z,53.10
2018-08-17T08:30:45.583Z,52.50
2018-08-17T08:33:15.897Z,51.80
2018-08-17T08:35:45.367Z,51.90
2018-08-17T08:38:14.873Z,51.80
2018-08-17T08:40:45.024Z,52.30
2018-08-17T08:43:14.346Z,52.50
2018-08-17T08:45:43.648Z,52.40
2018-08-17T08:48:13.171Z,52.00
2018-08-17T08:50:42.488Z,51.60
2018-08-17T08:53:11.756Z,51.80
2018-08-17T08:55:40.981Z,52.10
2018-08-17T08:58:10.363Z,52.60
2018-08-17T09:00:39.951Z,50.80
2018-08-17T09:03:09.188Z,51.10
2018-08-17T09:05:38.496Z,50.40
2018-08-17T09:08:08.285Z,50.70
2018-08-17T09:10:37.631Z,49.50
2018-08-17T09:13:07.141Z,49.40
2018-08-17T09:15:36.676Z,48.30
2018-08-17T09:18:07.267Z,48.20
2018-08-17T09:20:36.596Z,48.60
2018-08-17T09:23:05.870Z,48.90
2018-08-17T09:25:36.443Z,49.10
2018-08-17T09:28:05.680Z,46.90
2018-08-17T09:30:40.307Z,46.60
2018-08-17T09:33:09.931Z,46.20
2018-08-17T09:35:39.386Z,45.80
2018-08-17T09:38:08.819Z,45.60
2018-08-17T09:40:38.402Z,45.60
2018-08-17T09:43:07.613Z,45.00
2018-08-17T09:45:37.004Z,45.50
2018-08-17T09:48:06.703Z,45.80
2018-08-17T09:50:36.971Z,45.40
2018-08-17T09:53:06.959Z,45.80
2018-08-17T09:55:36.207Z,46.00
2018-08-17T09:58:05.681Z,45.70
2018-08-17T10:00:40.029Z,44.50
2018-08-17T10:03:14.531Z,45.00
2018-08-17T10:05:43.731Z,44.30
2018-08-17T10:08:18.595Z,43.90
2018-08-17T10:10:48.333Z,43.50
2018-08-17T10:13:17.690Z,43.00
2018-08-17T10:15:46.925Z,42.70
2018-08-17T10:18:16.303Z,43.50
2018-08-17T10:20:45.571Z,43.00
2018-08-17T10:23:19.859Z,43.10
2018-08-17T10:25:49.055Z,43.70
2018-08-17T10:28:18.258Z,43.40
2018-08-17T10:30:47.624Z,44.40
2018-08-17T10:33:17.054Z,42.60
2018-08-17T10:35:47.592Z,42.00
2018-08-17T10:38:17.028Z,41.50
2018-08-17T10:40:48.687Z,41.80
2018-08-17T10:43:18.253Z,40.40
2018-08-17T10:45:47.467Z,41.30
2018-08-17T10:48:16.844Z,41.20
2018-08-17T10:50:46.335Z,41.70
2018-08-17T10:53:15.523Z,40.80
2018-08-17T10:55:47.992Z,40.10
2018-08-17T10:58:18.499Z,39.70
2018-08-17T11:00:47.720Z,41.20
2018-08-17T11:03:17.026Z,43.20
2018-08-17T11:05:46.237Z,38.90
2018-08-17T11:08:15.714Z,38.10
2018-08-17T11:10:45.387Z,34.70
2018-08-17T11:13:14.610Z,34.90
2018-08-17T11:15:44.003Z,34.60
2018-08-17T11:18:13.207Z,33.00
2018-08-17T11:20:42.375Z,28.90
2018-08-17T11:23:11.575Z,30.00
2018-08-17T11:25:40.972Z,30.50
2018-08-17T11:28:10.167Z,29.70
2018-08-17T11:30:39.527Z,29.20
2018-08-17T11:33:09.359Z,30.40
2018-08-17T11:35:38.571Z,27.80
2018-08-17T11:38:07.827Z,26.60
2018-08-17T11:40:37.107Z,27.00
2018-08-17T11:43:06.340Z,26.50
2018-08-17T11:45:35.678Z,26.50
2018-08-17T11:48:05.952Z,28.80
2018-08-17T11:50:37.156Z,30.70
2018-08-17T11:53:06.659Z,29.60
2018-08-17T11:55:36.451Z,27.60
2018-08-17T11:58:05.683Z,26.80
2018-08-17T12:00:36.055Z,26.00
2018-08-17T12:03:07.099Z,25.00
2018-08-17T12:05:36.755Z,26.90
2018-08-17T12:08:06.138Z,26.60
2018-08-17T12:10:35.364Z,26.50
2018-08-17T12:13:24.139Z,24.00
2018-08-17T12:15:57.319Z,24.30
2018-08-17T12:18:26.865Z,23.70
2018-08-17T12:20:56.359Z,25.70
2018-08-17T12:23:25.579Z,25.00
2018-08-17T12:25:57.944Z,25.70
2018-08-17T12:28:29.612Z,24.70
2018-08-17T12:30:59.588Z,22.80
2018-08-17T12:33:28.780Z,23.00
2018-08-17T12:35:58.323Z,23.90
2018-08-17T12:38:27.541Z,23.10
2018-08-17T12:40:57.844Z,23.00
2018-08-17T12:43:30.651Z,24.10
2018-08-17T12:46:00.003Z,25.20
2018-08-17T12:48:29.184Z,26.00
2018-08-17T12:51:04.692Z,26.20
2018-08-17T12:53:33.872Z,26.70
2018-08-17T12:56:03.168Z,26.90
2018-08-17T12:58:32.351Z,27.30
2018-08-17T13:01:01.551Z,26.80
2018-08-17T13:03:30.745Z,24.80
2018-08-17T13:05:59.930Z,23.90
2018-08-17T13:08:29.109Z,24.00
2018-08-17T13:10:59.648Z,24.80
2018-08-17T13:13:29.315Z,25.80
2018-08-17T13:16:05.170Z,26.50
2018-08-17T13:18:36.295Z,27.00
2018-08-17T13:21:05.792Z,26.60
2018-08-17T13:23:35.051Z,24.90
2018-08-17T13:26:04.295Z,25.10
2018-08-17T13:28:33.462Z,25.80
2018-08-17T13:31:02.647Z,24.20
2018-08-17T13:33:32.351Z,23.40
2018-08-17T13:36:01.588Z,22.50
2018-08-17T13:38:30.791Z,24.60
2018-08-17T13:41:00.007Z,22.50
2018-08-17T13:43:29.179Z,24.90
2018-08-17T13:45:58.460Z,22.40
2018-08-17T13:48:27.955Z,23.50
2018-08-17T13:50:57.168Z,23.00
2018-08-17T13:53:26.360Z,22.10
2018-08-17T13:55:55.686Z,21.80
2018-08-17T13:58:24.915Z,23.00
2018-08-17T14:00:54.187Z,22.60
2018-08-17T14:03:23.406Z,22.50
2018-08-17T14:05:52.595Z,22.60
2018-08-17T14:08:22.825Z,24.40
2018-08-17T14:10:51.999Z,23.90
2018-08-17T14:13:21.172Z,24.60
2018-08-17T14:15:50.501Z,22.80
2018-08-17T14:18:20.092Z,22.30
2018-08-17T14:20:49.308Z,23.80
2018-08-17T14:23:18.770Z,22.10
2018-08-17T14:25:47.951Z,22.10
2018-08-17T14:28:17.309Z,22.20
2018-08-17T14:30:46.487Z,22.20
2018-08-17T14:33:15.688Z,23.40
2018-08-17T14:35:44.907Z,24.50
2018-08-17T14:38:14.261Z,23.30
2018-08-17T14:40:43.752Z,24.10
2018-08-17T14:43:12.936Z,24.00
2018-08-17T14:45:42.103Z,24.00
2018-08-17T14:48:11.468Z,21.10
2018-08-17T14:50:40.644Z,22.20
2018-08-17T14:53:09.835Z,22.00
2018-08-17T14:55:39.052Z,22.40
2018-08-17T14:58:08.271Z,22.60
2018-08-17T15:00:37.619Z,23.20
2018-08-17T15:03:07.151Z,23.70
2018-08-17T15:05:36.350Z,24.10
2018-08-17T15:08:05.912Z,24.40
2018-08-17T15:10:35.158Z,24.80
2018-08-17T15:13:04.538Z,25.10
2018-08-17T15:15:33.672Z,25.30
2018-08-17T15:18:02.947Z,25.60
2018-08-17T15:20:32.643Z,26.10
2018-08-17T15:23:01.844Z,26.20
2018-08-17T15:25:31.173Z,26.80
2018-08-17T15:28:00.392Z,27.60
2018-08-17T15:30:29.634Z,28.40
2018-08-17T15:32:58.815Z,30.10
2018-08-17T15:35:28.182Z,30.10
2018-08-17T15:37:57.343Z,32.80
2018-08-17T15:40:26.728Z,33.70
2018-08-17T15:42:58.894Z,33.10
2018-08-17T15:45:28.179Z,35.30
2018-08-17T15:47:57.379Z,35.70
2018-08-17T15:50:27.608Z,89.60
2018-08-17T15:52:56.827Z,99.90
2018-08-17T15:55:26.023Z,99.90
2018-08-17T15:57:55.303Z,99.90
2018-08-17T16:00:24.541Z,97.50
2018-08-17T16:02:53.751Z,99.90
2018-08-17T16:05:23.064Z,99.90
2018-08-17T16:07:52.415Z,99.90
2018-08-17T16:10:21.641Z,92.20
2018-08-17T16:12:50.831Z,92.10
2018-08-17T16:15:20.103Z,86.30
2018-08-17T16:17:49.988Z,85.10
2018-08-17T16:20:19.181Z,88.80
2018-08-17T16:22:48.449Z,94.10
2018-08-17T16:25:17.672Z,97.70
2018-08-17T16:27:46.907Z,99.30
2018-08-17T16:30:16.688Z,99.90
2018-08-17T16:32:45.915Z,99.90
2018-08-17T16:35:15.394Z,99.90
2018-08-17T16:37:47.522Z,99.00
2018-08-17T16:40:17.015Z,99.90
2018-08-17T16:42:50.143Z,99.90
2018-08-17T16:45:19.385Z,99.90
2018-08-17T16:47:48.588Z,99.90
2018-08-17T16:50:19.058Z,99.90
2018-08-17T16:52:48.420Z,99.90
2018-08-17T16:55:17.691Z,99.90
2018-08-17T16:57:51.015Z,99.90
2018-08-17T17:00:20.368Z,99.90
2018-08-17T17:02:49.587Z,99.90
2018-08-17T17:05:18.918Z,99.90
2018-08-17T17:07:48.555Z,99.90
2018-08-17T17:10:17.795Z,99.90
2018-08-17T17:12:47.260Z,99.90
2018-08-17T17:15:20.959Z,99.90
2018-08-17T17:17:56.447Z,99.90
2018-08-17T17:20:28.099Z,98.60
2018-08-17T17:22:59.000Z,98.10
2018-08-17T17:25:28.618Z,99.40
2018-08-17T17:27:58.001Z,99.90
2018-08-17T17:30:36.583Z,97.90
2018-08-17T17:33:06.343Z,98.10
2018-08-17T17:35:36.255Z,96.20
2018-08-17T17:38:05.556Z,98.20
2018-08-17T17:40:34.944Z,97.90
2018-08-17T17:43:04.857Z,97.00
2018-08-17T17:45:35.903Z,97.00
2018-08-17T17:48:09.707Z,96.60
2018-08-17T17:50:39.459Z,94.70
2018-08-17T17:53:08.683Z,96.80
2018-08-17T17:55:44.367Z,98.40
2018-08-17T17:58:14.418Z,97.60
2018-08-17T18:00:54.045Z,99.40
2018-08-17T18:03:23.271Z,99.00
2018-08-17T18:05:52.472Z,98.40
2018-08-17T18:08:21.923Z,98.10
2018-08-17T18:10:51.490Z,99.80
2018-08-17T18:13:21.933Z,98.40
2018-08-17T18:15:51.159Z,98.60
2018-08-17T18:18:20.399Z,97.10
2018-08-17T18:20:49.619Z,96.30
2018-08-17T18:23:19.268Z,96.20
2018-08-17T18:25:48.861Z,96.70
2018-08-17T18:28:18.119Z,97.40
2018-08-17T18:30:47.515Z,95.40
2018-08-17T18:33:16.767Z,93.90
2018-08-17T18:35:46.032Z,92.40
2018-08-17T18:38:15.331Z,94.70
2018-08-17T18:40:44.552Z,95.60
2018-08-17T18:43:13.727Z,94.10
2018-08-17T18:45:43.042Z,95.00
2018-08-17T18:48:13.423Z,93.90
2018-08-17T18:50:42.646Z,94.10
2018-08-17T18:53:17.071Z,95.70
2018-08-17T18:55:46.327Z,95.80
2018-08-17T18:58:16.033Z,96.30
2018-08-17T19:00:45.800Z,96.10
2018-08-17T19:03:15.100Z,96.70
2018-08-17T19:05:44.336Z,96.90
2018-08-17T19:08:14.882Z,96.50
2018-08-17T19:10:44.187Z,96.90
2018-08-17T19:13:13.476Z,96.00
2018-08-17T19:15:57.464Z,96.90
2018-08-17T19:18:31.907Z,97.00
2018-08-17T19:21:07.879Z,97.10
2018-08-17T19:23:38.555Z,96.30
2018-08-17T19:26:09.027Z,96.60
2018-08-17T19:28:38.379Z,96.40
2018-08-17T19:31:08.944Z,96.40
2018-08-17T19:33:38.494Z,96.20
2018-08-17T19:36:07.929Z,96.40
2018-08-17T19:38:41.832Z,96.20
2018-08-17T19:41:11.434Z,96.80
2018-08-17T19:43:40.820Z,97.20
2018-08-17T19:46:10.433Z,96.00
2018-08-17T19:48:40.305Z,96.70
2018-08-17T19:51:15.020Z,96.20
2018-08-17T19:53:44.255Z,96.30
2018-08-17T19:56:13.997Z,95.40
2018-08-17T19:58:43.923Z,91.10
2018-08-17T20:01:14.385Z,91.40
2018-08-17T20:03:44.568Z,91.80
2018-08-17T20:06:13.940Z,91.10
2018-08-17T20:08:43.612Z,91.80
2018-08-17T20:11:12.816Z,92.50
2018-08-17T20:13:42.428Z,93.00
2018-08-17T20:16:31.991Z,93.90
2018-08-17T20:19:01.997Z,94.00
2018-08-17T20:21:31.167Z,93.10
2018-08-17T20:24:00.851Z,92.50
2018-08-17T20:26:32.636Z,92.90
2018-08-17T20:29:01.935Z,93.80
2018-08-17T20:31:31.273Z,93.70
2018-08-17T20:34:00.797Z,91.30
2018-08-17T20:36:30.000Z,86.00
2018-08-17T20:38:59.231Z,82.50
2018-08-17T20:41:28.751Z,83.70
2018-08-17T20:43:58.171Z,82.20
2018-08-17T20:46:27.697Z,82.70
2018-08-17T20:48:57.000Z,82.90
2018-08-17T20:51:26.958Z,83.30
2018-08-17T20:53:58.947Z,82.40
2018-08-17T20:56:28.548Z,84.80
2018-08-17T20:58:57.844Z,86.70
2018-08-17T21:01:31.235Z,83.20
2018-08-17T21:04:01.641Z,85.50
2018-08-17T21:06:33.112Z,85.20
2018-08-17T21:09:02.419Z,83.90
2018-08-17T21:11:32.988Z,85.90
2018-08-17T21:14:02.475Z,87.20
2018-08-17T21:16:31.780Z,82.00
2018-08-17T21:19:00.975Z,79.80
2018-08-17T21:21:30.258Z,82.80
2018-08-17T21:23:59.451Z,84.90
2018-08-17T21:26:28.892Z,85.80
2018-08-17T21:28:59.274Z,85.70
2018-08-17T21:31:28.903Z,86.60
2018-08-17T21:33:58.103Z,87.60
2018-08-17T21:36:27.723Z,88.00
2018-08-17T21:39:11.955Z,88.20
2018-08-17T21:41:43.463Z,86.20
2018-08-17T21:44:15.848Z,85.20
2018-08-17T21:46:56.239Z,84.50
2018-08-17T21:49:26.243Z,85.40
2018-08-17T21:51:58.980Z,85.90
2018-08-17T21:54:31.284Z,85.50
2018-08-17T21:57:01.548Z,85.80
2018-08-17T21:59:49.403Z,86.80
2018-08-17T22:02:19.658Z,86.80
2018-08-17T22:04:48.856Z,86.80
2018-08-17T22:07:20.762Z,87.20
2018-08-17T22:09:50.555Z,87.70
2018-08-17T22:12:19.794Z,87.80
2018-08-17T22:14:49.683Z,87.80
2018-08-17T22:17:30.975Z,87.40
2018-08-17T22:20:00.472Z,87.50
2018-08-17T22:22:29.719Z,87.40
2018-08-17T22:24:59.898Z,88.10
2018-08-17T22:27:30.144Z,89.30
2018-08-17T22:29:59.838Z,88.50
2018-08-17T22:32:29.019Z,88.10
2018-08-17T22:34:58.240Z,87.30
2018-08-17T22:37:27.423Z,86.90
2018-08-17T22:39:56.609Z,85.20
2018-08-17T22:42:25.987Z,85.10
2018-08-17T22:44:55.023Z,85.70
2018-08-17T22:47:25.419Z,85.60
2018-08-17T22:49:57.681Z,86.50
2018-08-17T22:52:26.999Z,86.70
2018-08-17T22:54:57.111Z,86.90
2018-08-17T22:57:26.994Z,86.20
2018-08-17T23:00:10.431Z,86.10
2018-08-17T23:02:40.607Z,85.80
2018-08-17T23:05:11.306Z,86.50
2018-08-17T23:07:40.523Z,86.60
2018-08-17T23:10:13.252Z,86.80
2018-08-17T23:12:43.203Z,87.30
2018-08-17T23:15:12.812Z,87.70
2018-08-17T23:17:44.955Z,88.40
2018-08-17T23:20:14.291Z,88.50
2018-08-17T23:22:48.653Z,89.20
2018-08-17T23:25:18.343Z,90.10
2018-08-17T23:27:48.331Z,90.00
2018-08-17T23:30:18.116Z,89.90
2018-08-17T23:32:47.659Z,90.10
2018-08-17T23:35:16.887Z,90.10
2018-08-17T23:37:46.172Z,90.30
2018-08-17T23:40:15.407Z,90.40
2018-08-17T23:42:44.662Z,90.40
2018-08-17T23:45:15.415Z,90.50
2018-08-17T23:47:44.651Z,90.60
2018-08-17T23:50:14.958Z,90.80
2018-08-17T23:52:44.564Z,90.60
2018-08-17T23:55:15.563Z,90.70
2018-08-17T23:57:44.982Z,90.70
